Time,TemperatureF,DewpointF,PressureIn,WindDirection,WindDirectionDegrees,WindSpeedMPH,WindSpeedGustMPH,Humidity,HourlyPrecipIn,Conditions,Clouds,dailyrainin,SoftwareType,DateUTC
2013-08-13 00:05:00,86.4,69.0,29.91,South,179,10.0,13.0,56,0.00,,,0.00,weatherlink.com 1.10,2013-08-13 05:05:00,
2013-08-13 00:20:00,86.0,69.0,29.91,South,184,4.0,11.0,57,0.00,,,0.00,weatherlink.com 1.10,2013-08-13 05:20:00,
2013-08-13 00:35:00,85.6,69.0,29.91,South,188,7.0,9.0,58,0.00,,,0.00,weatherlink.com 1.10,2013-08-13 05:35:00,
2013-08-13 00:50:00,85.1,69.0,29.90,South,186,8.0,12.0,59,0.00,,,0.00,weatherlink.com 1.10,2013-08-13 05:50:00,
2013-08-13 01:05:00,84.9,70.0,29.90,SSW,193,12.0,15.0,61,0.00,,,0.00,weatherlink.com 1.10,2013-08-13 06:05:00,
2013-08-13 01:20:00,84.5,70.0,29.91,South,190,11.0,13.0,62,0.00,,,0.00,weatherlink.com 1.10,2013-08-13 06:20:00,
2013-08-13 01:35:00,84.3,70.0,29.91,South,186,8.0,12.0,63,0.00,,,0.00,weatherlink.com 1.10,2013-08-13 06:35:00,
2013-08-13 01:50:00,84.1,71.0,29.91,South,187,9.0,13.0,64,0.00,,,0.00,weatherlink.com 1.10,2013-08-13 06:50:00,
2013-08-13 02:05:00,83.8,71.0,29.91,South,186,7.0,13.0,65,0.00,,,0.00,weatherlink.com 1.10,2013-08-13 07:05:00,
2013-08-13 02:20:00,83.6,71.0,29.92,South,189,9.0,12.0,66,0.00,,,0.00,weatherlink.com 1.10,2013-08-13 07:20:00,
2013-08-13 02:35:00,83.2,71.0,29.92,SSW,195,10.0,14.0,67,0.00,,,0.00,weatherlink.com 1.10,2013-08-13 07:35:00,
2013-08-13 02:50:00,82.9,71.0,29.92,SSW,194,11.0,15.0,67,0.00,,,0.00,weatherlink.com 1.10,2013-08-13 07:50:00,
2013-08-13 03:05:00,82.6,71.0,29.92,SSW,194,10.0,15.0,68,0.00,,,0.00,weatherlink.com 1.10,2013-08-13 08:05:00,
2013-08-13 03:20:00,82.4,71.0,29.93,SSW,194,7.0,13.0,68,0.00,,,0.00,weatherlink.com 1.10,2013-08-13 08:20:00,
2013-08-13 03:35:00,82.2,71.0,29.93,SSW,195,4.0,12.0,69,0.00,,,0.00,weatherlink.com 1.10,2013-08-13 08:35:00,
2013-08-13 03:50:00,81.9,71.0,29.93,SSW,195,10.0,10.0,69,0.00,,,0.00,weatherlink.com 1.10,2013-08-13 08:50:00,
2013-08-13 04:05:00,81.7,71.0,29.93,SSW,196,9.0,12.0,69,0.00,,,0.00,weatherlink.com 1.10,2013-08-13 09:05:00,
2013-08-13 04:20:00,81.4,71.0,29.93,SSW,192,8.0,14.0,70,0.00,,,0.00,weatherlink.com 1.10,2013-08-13 09:20:00,
2013-08-13 04:35:00,81.3,71.0,29.93,SSW,198,8.0,13.0,70,0.00,,,0.00,weatherlink.com 1.10,2013-08-13 09:35:00,
2013-08-13 04:50:00,81.1,71.0,29.93,South,181,4.0,12.0,71,0.00,,,0.00,weatherlink.com 1.10,2013-08-13 09:50:00,
2013-08-13 05:05:00,80.9,71.0,29.93,South,179,4.0,9.0,71,0.00,,,0.00,weatherlink.com 1.10,2013-08-13 10:05:00,
2013-08-13 05:20:00,80.6,71.0,29.92,SSW,194,3.0,13.0,72,0.00,,,0.00,weatherlink.com 1.10,2013-08-13 10:20:00,
2013-08-13 05:35:00,80.3,71.0,29.92,SSW,192,8.0,12.0,72,0.00,,,0.00,weatherlink.com 1.10,2013-08-13 10:35:00,
2013-08-13 05:50:00,80.1,70.0,29.93,SSW,194,6.0,13.0,72,0.00,,,0.00,weatherlink.com 1.10,2013-08-13 10:50:00,
2013-08-13 06:05:00,79.8,70.0,29.93,SSW,194,10.0,12.0,73,0.00,,,0.00,weatherlink.com 1.10,2013-08-13 11:05:00,
2013-08-13 06:20:00,79.7,70.0,29.93,SSW,192,4.0,8.0,73,0.00,,,0.00,weatherlink.com 1.10,2013-08-13 11:20:00,
2013-08-13 06:35:00,79.4,70.0,29.93,SSW,192,5.0,8.0,73,0.00,,,0.00,weatherlink.com 1.10,2013-08-13 11:35:00,
2013-08-13 06:50:00,79.2,70.0,29.94,South,191,6.0,8.0,73,0.00,,,0.00,weatherlink.com 1.10,2013-08-13 11:50:00,
2013-08-13 07:05:00,79.1,70.0,29.94,South,184,3.0,12.0,73,0.00,,,0.00,weatherlink.com 1.10,2013-08-13 12:05:00,
2013-08-13 07:20:00,79.2,70.0,29.94,South,184,5.0,11.0,73,0.00,,,0.00,weatherlink.com 1.10,2013-08-13 12:20:00,
2013-08-13 07:35:00,79.3,70.0,29.94,South,186,8.0,11.0,74,0.00,,,0.00,weatherlink.com 1.10,2013-08-13 12:35:00,
2013-08-13 07:50:00,79.7,71.0,29.94,SSW,192,5.0,8.0,74,0.00,,,0.00,weatherlink.com 1.10,2013-08-13 12:50:00,
2013-08-13 08:05:00,80.4,71.0,29.95,SSW,195,7.0,8.0,73,0.00,,,0.00,weatherlink.com 1.10,2013-08-13 13:05:00,
2013-08-13 08:20:00,80.8,71.0,29.95,SSW,196,4.0,9.0,73,0.00,,,0.00,weatherlink.com 1.10,2013-08-13 13:20:00,
2013-08-13 08:35:00,81.2,71.0,29.95,SSW,199,3.0,12.0,71,0.00,,,0.00,weatherlink.com 1.10,2013-08-13 13:35:00,
2013-08-13 08:50:00,81.6,71.0,29.96,SSW,198,6.0,9.0,71,0.00,,,0.00,weatherlink.com 1.10,2013-08-13 13:50:00,
2013-08-13 09:05:00,82.4,72.0,29.96,SSW,193,9.0,11.0,70,0.00,,,0.00,weatherlink.com 1.10,2013-08-13 14:05:00,
2013-08-13 09:20:00,83.4,72.0,29.96,SSW,200,5.0,12.0,69,0.00,,,0.00,weatherlink.com 1.10,2013-08-13 14:20:00,
2013-08-13 09:35:00,83.8,72.0,29.96,SSW,196,10.0,13.0,68,0.00,,,0.00,weatherlink.com 1.10,2013-08-13 14:35:00,
2013-08-13 09:50:00,83.8,72.0,29.96,SSW,198,7.0,11.0,68,0.00,,,0.00,weatherlink.com 1.10,2013-08-13 14:50:00,
2013-08-13 10:06:00,84.7,72.0,29.96,SSW,192,10.0,10.0,66,0.00,,,0.00,weatherlink.com 1.10,2013-08-13 15:06:00,
2013-08-13 10:21:00,85.6,72.0,29.96,South,178,4.0,11.0,64,0.00,,,0.00,weatherlink.com 1.10,2013-08-13 15:21:00,
2013-08-13 10:36:00,86.2,72.0,29.96,SSW,194,9.0,12.0,62,0.00,,,0.00,weatherlink.com 1.10,2013-08-13 15:36:00,
2013-08-13 10:51:00,87.9,71.0,29.96,SSW,192,5.0,11.0,58,0.00,,,0.00,weatherlink.com 1.10,2013-08-13 15:51:00,
2013-08-13 11:06:00,88.1,71.0,29.96,SSW,193,5.0,9.0,57,0.00,,,0.00,weatherlink.com 1.10,2013-08-13 16:06:00,
2013-08-13 11:21:00,89.1,71.0,29.96,SSW,199,3.0,10.0,55,0.00,,,0.00,weatherlink.com 1.10,2013-08-13 16:21:00,
2013-08-13 11:36:00,90.1,71.0,29.96,South,179,8.0,11.0,53,0.00,,,0.00,weatherlink.com 1.10,2013-08-13 16:36:00,
2013-08-13 11:51:00,90.2,70.0,29.96,South,174,3.0,8.0,52,0.00,,,0.00,weatherlink.com 1.10,2013-08-13 16:51:00,
2013-08-13 12:06:00,90.7,70.0,29.96,SSE,165,4.0,10.0,50,0.00,,,0.00,weatherlink.com 1.10,2013-08-13 17:06:00,
2013-08-13 12:21:00,91.6,70.0,29.95,South,174,8.0,10.0,50,0.00,,,0.00,weatherlink.com 1.10,2013-08-13 17:21:00,
2013-08-13 12:36:00,92.3,69.0,29.95,South,172,3.0,9.0,46,0.00,,,0.00,weatherlink.com 1.10,2013-08-13 17:36:00,
2013-08-13 12:51:00,93.0,69.0,29.94,South,174,11.0,13.0,46,0.00,,,0.00,weatherlink.com 1.10,2013-08-13 17:51:00,
2013-08-13 13:06:00,93.3,69.0,29.94,South,170,7.0,12.0,45,0.00,,,0.00,weatherlink.com 1.10,2013-08-13 18:06:00,
2013-08-13 13:21:00,93.4,68.0,29.93,South,169,5.0,8.0,44,0.00,,,0.00,weatherlink.com 1.10,2013-08-13 18:21:00,
2013-08-13 13:36:00,94.1,68.0,29.92,SSE,154,5.0,11.0,42,0.00,,,0.00,weatherlink.com 1.10,2013-08-13 18:36:00,
2013-08-13 13:51:00,94.6,69.0,29.92,SSE,160,5.0,9.0,44,0.00,,,0.00,weatherlink.com 1.10,2013-08-13 18:51:00,
2013-08-13 14:06:00,93.7,71.0,29.91,SSE,161,7.0,9.0,47,0.00,,,0.00,weatherlink.com 1.10,2013-08-13 19:06:00,
2013-08-13 14:21:00,94.3,70.0,29.90,SSE,165,7.0,11.0,45,0.00,,,0.00,weatherlink.com 1.10,2013-08-13 19:21:00,
2013-08-13 14:36:00,94.0,71.0,29.89,SSE,167,3.0,8.0,47,0.00,,,0.00,weatherlink.com 1.10,2013-08-13 19:36:00,
2013-08-13 14:51:00,95.1,71.0,29.88,SSE,167,4.0,9.0,45,0.00,,,0.00,weatherlink.com 1.10,2013-08-13 19:51:00,
2013-08-13 15:06:00,95.2,70.0,29.87,South,172,5.0,8.0,44,0.00,,,0.00,weatherlink.com 1.10,2013-08-13 20:06:00,
2013-08-13 15:21:00,95.2,69.0,29.87,South,171,3.0,7.0,43,0.00,,,0.00,weatherlink.com 1.10,2013-08-13 20:21:00,
2013-08-13 15:37:00,95.6,68.0,29.86,SSE,165,4.0,8.0,41,0.00,,,0.00,weatherlink.com 1.10,2013-08-13 20:37:00,
2013-08-13 15:52:00,96.4,69.0,29.85,SSE,164,5.0,7.0,41,0.00,,,0.00,weatherlink.com 1.10,2013-08-13 20:52:00,
2013-08-13 16:07:00,97.0,67.0,29.84,SSE,164,3.0,8.0,38,0.00,,,0.00,weatherlink.com 1.10,2013-08-13 21:07:00,
2013-08-13 16:22:00,97.3,67.0,29.83,SSE,163,4.0,8.0,37,0.00,,,0.00,weatherlink.com 1.10,2013-08-13 21:22:00,
2013-08-13 16:37:00,97.6,66.0,29.82,SSE,163,4.0,7.0,35,0.00,,,0.00,weatherlink.com 1.10,2013-08-13 21:37:00,
2013-08-13 16:52:00,98.1,65.0,29.82,SSE,163,4.0,6.0,34,0.00,,,0.00,weatherlink.com 1.10,2013-08-13 21:52:00,
2013-08-13 17:07:00,98.2,65.0,29.82,SSE,163,3.0,7.0,34,0.00,,,0.00,weatherlink.com 1.10,2013-08-13 22:07:00,
2013-08-13 17:22:00,98.7,65.0,29.81,SSE,163,2.0,7.0,33,0.00,,,0.00,weatherlink.com 1.10,2013-08-13 22:22:00,
2013-08-13 17:37:00,98.6,65.0,29.81,SSE,163,7.0,7.0,33,0.00,,,0.00,weatherlink.com 1.10,2013-08-13 22:37:00,
2013-08-13 17:52:00,98.5,63.0,29.81,SSE,163,3.0,7.0,31,0.00,,,0.00,weatherlink.com 1.10,2013-08-13 22:52:00,
2013-08-13 18:07:00,98.7,64.0,29.81,SSE,163,7.0,7.0,32,0.00,,,0.00,weatherlink.com 1.10,2013-08-13 23:07:00,
2013-08-13 18:22:00,98.7,62.0,29.81,SSE,163,2.0,5.0,30,0.00,,,0.00,weatherlink.com 1.10,2013-08-13 23:22:00,
2013-08-13 18:37:00,98.7,63.0,29.80,SSE,163,2.0,6.0,31,0.00,,,0.00,weatherlink.com 1.10,2013-08-13 23:37:00,
2013-08-13 18:52:00,98.1,63.0,29.80,SSE,163,3.0,7.0,31,0.00,,,0.00,weatherlink.com 1.10,2013-08-13 23:52:00,
2013-08-13 19:07:00,97.8,64.0,29.80,SSE,163,3.0,6.0,33,0.00,,,0.00,weatherlink.com 1.10,2013-08-14 00:07:00,
2013-08-13 19:22:00,97.0,66.0,29.80,SSE,151,5.0,10.0,36,0.00,,,0.00,weatherlink.com 1.10,2013-08-14 00:22:00,
2013-08-13 19:37:00,96.5,68.0,29.81,SE,144,5.0,8.0,39,0.00,,,0.00,weatherlink.com 1.10,2013-08-14 00:37:00,
2013-08-13 19:52:00,95.4,68.0,29.80,SE,142,7.0,9.0,40,0.00,,,0.00,weatherlink.com 1.10,2013-08-14 00:52:00,
2013-08-13 20:07:00,94.4,68.0,29.81,SE,136,8.0,9.0,42,0.00,,,0.00,weatherlink.com 1.10,2013-08-14 01:07:00,
2013-08-13 20:22:00,93.7,67.0,29.81,South,172,4.0,9.0,42,0.00,,,0.00,weatherlink.com 1.10,2013-08-14 01:22:00,
2013-08-13 20:37:00,93.1,69.0,29.82,SSE,158,5.0,8.0,45,0.00,,,0.00,weatherlink.com 1.10,2013-08-14 01:37:00,
2013-08-13 20:52:00,92.4,68.0,29.82,SSE,150,6.0,8.0,45,0.00,,,0.00,weatherlink.com 1.10,2013-08-14 01:52:00,
2013-08-13 21:07:00,92.3,68.0,29.82,SSE,150,6.0,9.0,45,0.00,,,0.00,weatherlink.com 1.10,2013-08-14 02:07:00,
2013-08-13 21:22:00,91.8,67.0,29.83,SSE,150,5.0,8.0,44,0.00,,,0.00,weatherlink.com 1.10,2013-08-14 02:22:00,
2013-08-13 21:37:00,90.9,67.0,29.83,SE,141,7.0,8.0,45,0.00,,,0.00,weatherlink.com 1.10,2013-08-14 02:37:00,
2013-08-13 21:52:00,90.6,67.0,29.84,SSE,150,8.0,9.0,46,0.00,,,0.00,weatherlink.com 1.10,2013-08-14 02:52:00,
2013-08-13 22:07:00,90.0,68.0,29.84,SSE,153,6.0,8.0,48,0.00,,,0.00,weatherlink.com 1.10,2013-08-14 03:07:00,
2013-08-13 22:22:00,89.7,68.0,29.84,SSE,153,5.0,8.0,49,0.00,,,0.00,weatherlink.com 1.10,2013-08-14 03:22:00,
2013-08-13 22:37:00,89.4,67.0,29.84,SSE,167,7.0,10.0,48,0.00,,,0.00,weatherlink.com 1.10,2013-08-14 03:37:00,
2013-08-13 22:52:00,89.3,68.0,29.84,South,169,5.0,9.0,49,0.00,,,0.00,weatherlink.com 1.10,2013-08-14 03:52:00,
2013-08-13 23:07:00,89.1,68.0,29.84,South,171,2.0,8.0,49,0.00,,,0.00,weatherlink.com 1.10,2013-08-14 04:07:00,
2013-08-13 23:22:00,88.9,67.0,29.84,South,171,3.0,10.0,49,0.00,,,0.00,weatherlink.com 1.10,2013-08-14 04:22:00,
2013-08-13 23:37:00,88.6,67.0,29.85,South,171,3.0,8.0,49,0.00,,,0.00,weatherlink.com 1.10,2013-08-14 04:37:00,
2013-08-13 23:52:00,88.1,68.0,29.85,South,171,1.0,5.0,51,0.00,,,0.00,weatherlink.com 1.10,2013-08-14 04:52:00,